sensor_id;sensor_type;location;lat;lon;timestamp;P1;durP1;ratioP1;P2;durP2;ratioP2
5054;SDS011;13829;48.990;8.346;2023-05-16T00:00:38;18.00;;;14.17;;
5054;SDS011;13829;48.990;8.346;2023-05-16T00:03:05;16.10;;;13.77;;
5054;SDS011;13829;48.990;8.346;2023-05-16T00:05:33;16.70;;;14.87;;
5054;SDS011;13829;48.990;8.346;2023-05-16T00:08:00;16.47;;;14.77;;
5054;SDS011;13829;48.990;8.346;2023-05-16T00:10:27;17.73;;;15.77;;
5054;SDS011;13829;48.990;8.346;2023-05-16T00:12:54;15.47;;;13.87;;
5054;SDS011;13829;48.990;8.346;2023-05-16T00:15:21;16.87;;;14.93;;
5054;SDS011;13829;48.990;8.346;2023-05-16T00:17:49;16.20;;;14.47;;
5054;SDS011;13829;48.990;8.346;2023-05-16T00:20:15;16.10;;;14.43;;
5054;SDS011;13829;48.990;8.346;2023-05-16T00:22:48;16.80;;;14.80;;
5054;SDS011;13829;48.990;8.346;2023-05-16T00:25:15;16.17;;;14.47;;
5054;SDS011;13829;48.990;8.346;2023-05-16T00:27:42;16.43;;;14.20;;
5054;SDS011;13829;48.990;8.346;2023-05-16T00:30:09;16.77;;;14.87;;
5054;SDS011;13829;48.990;8.346;2023-05-16T00:32:37;15.87;;;14.03;;
5054;SDS011;13829;48.990;8.346;2023-05-16T00:35:04;18.00;;;15.60;;
5054;SDS011;13829;48.990;8.346;2023-05-16T00:37:34;17.73;;;15.03;;
5054;SDS011;13829;48.990;8.346;2023-05-16T00:40:04;16.20;;;14.53;;
5054;SDS011;13829;48.990;8.346;2023-05-16T00:42:32;15.13;;;13.60;;
5054;SDS011;13829;48.990;8.346;2023-05-16T00:44:59;14.73;;;13.20;;
5054;SDS011;13829;48.990;8.346;2023-05-16T00:47:26;15.40;;;13.83;;
5054;SDS011;13829;48.990;8.346;2023-05-16T00:49:53;15.40;;;13.80;;
5054;SDS011;13829;48.990;8.346;2023-05-16T00:52:20;15.17;;;13.43;;
5054;SDS011;13829;48.990;8.346;2023-05-16T00:54:47;16.10;;;14.40;;
5054;SDS011;13829;48.990;8.346;2023-05-16T00:57:17;14.43;;;12.93;;
5054;SDS011;13829;48.990;8.346;2023-05-16T00:59:44;16.30;;;14.17;;
5054;SDS011;13829;48.990;8.346;2023-05-16T01:02:12;16.37;;;14.33;;
5054;SDS011;13829;48.990;8.346;2023-05-16T01:04:46;17.07;;;14.53;;
5054;SDS011;13829;48.990;8.346;2023-05-16T01:07:15;15.67;;;13.27;;
5054;SDS011;13829;48.990;8.346;2023-05-16T01:09:46;14.67;;;13.13;;
5054;SDS011;13829;48.990;8.346;2023-05-16T01:12:13;15.93;;;13.83;;
5054;SDS011;13829;48.990;8.346;2023-05-16T01:14:50;16.03;;;14.03;;
5054;SDS011;13829;48.990;8.346;2023-05-16T01:17:32;17.83;;;15.07;;
5054;SDS011;13829;48.990;8.346;2023-05-16T01:23:16;16.87;;;13.83;;
5054;SDS011;13829;48.990;8.346;2023-05-16T01:28:52;16.50;;;14.57;;
5054;SDS011;13829;48.990;8.346;2023-05-16T01:31:20;17.17;;;14.30;;
5054;SDS011;13829;48.990;8.346;2023-05-16T01:33:48;17.43;;;15.53;;
5054;SDS011;13829;48.990;8.346;2023-05-16T01:36:23;17.33;;;14.13;;
5054;SDS011;13829;48.990;8.346;2023-05-16T01:38:59;15.60;;;13.87;;
5054;SDS011;13829;48.990;8.346;2023-05-16T01:41:42;17.10;;;14.10;;
5054;SDS011;13829;48.990;8.346;2023-05-16T01:44:22;18.43;;;16.13;;
5054;SDS011;13829;48.990;8.346;2023-05-16T01:46:58;17.00;;;15.27;;
5054;SDS011;13829;48.990;8.346;2023-05-16T01:49:34;17.60;;;15.73;;
5054;SDS011;13829;48.990;8.346;2023-05-16T01:52:13;22.93;;;19.53;;
5054;SDS011;13829;48.990;8.346;2023-05-16T01:54:46;21.40;;;18.93;;
5054;SDS011;13829;48.990;8.346;2023-05-16T01:57:23;20.43;;;17.10;;
5054;SDS011;13829;48.990;8.346;2023-05-16T01:59:53;23.77;;;19.83;;
5054;SDS011;13829;48.990;8.346;2023-05-16T02:02:21;28.47;;;22.73;;
5054;SDS011;13829;48.990;8.346;2023-05-16T02:04:49;29.00;;;23.70;;
5054;SDS011;13829;48.990;8.346;2023-05-16T02:07:16;28.03;;;21.90;;
5054;SDS011;13829;48.990;8.346;2023-05-16T02:09:44;31.87;;;24.97;;
5054;SDS011;13829;48.990;8.346;2023-05-16T02:12:11;31.60;;;24.20;;
5054;SDS011;13829;48.990;8.346;2023-05-16T02:14:39;31.40;;;23.37;;
5054;SDS011;13829;48.990;8.346;2023-05-16T02:17:06;31.97;;;25.30;;
5054;SDS011;13829;48.990;8.346;2023-05-16T02:19:34;31.40;;;23.23;;
5054;SDS011;13829;48.990;8.346;2023-05-16T02:22:01;32.20;;;23.00;;
5054;SDS011;13829;48.990;8.346;2023-05-16T02:24:28;28.60;;;21.83;;
5054;SDS011;13829;48.990;8.346;2023-05-16T02:26:55;30.40;;;22.10;;
5054;SDS011;13829;48.990;8.346;2023-05-16T02:29:22;31.67;;;23.27;;
5054;SDS011;13829;48.990;8.346;2023-05-16T02:31:51;31.80;;;22.57;;
5054;SDS011;13829;48.990;8.346;2023-05-16T02:34:18;31.10;;;21.57;;
5054;SDS011;13829;48.990;8.346;2023-05-16T02:36:45;36.40;;;24.40;;
5054;SDS011;13829;48.990;8.346;2023-05-16T02:39:12;31.17;;;23.80;;
5054;SDS011;13829;48.990;8.346;2023-05-16T02:41:41;34.03;;;24.50;;
5054;SDS011;13829;48.990;8.346;2023-05-16T02:44:08;28.17;;;22.53;;
5054;SDS011;13829;48.990;8.346;2023-05-16T02:46:36;28.77;;;23.07;;
5054;SDS011;13829;48.990;8.346;2023-05-16T02:49:04;31.80;;;23.20;;
5054;SDS011;13829;48.990;8.346;2023-05-16T02:51:31;32.70;;;23.43;;
5054;SDS011;13829;48.990;8.346;2023-05-16T02:53:58;32.00;;;24.00;;
5054;SDS011;13829;48.990;8.346;2023-05-16T02:56:27;30.27;;;22.37;;
5054;SDS011;13829;48.990;8.346;2023-05-16T02:58:56;32.83;;;23.97;;
5054;SDS011;13829;48.990;8.346;2023-05-16T03:01:23;29.50;;;22.80;;
5054;SDS011;13829;48.990;8.346;2023-05-16T03:03:50;30.23;;;23.47;;
5054;SDS011;13829;48.990;8.346;2023-05-16T03:06:21;28.17;;;21.03;;
5054;SDS011;13829;48.990;8.346;2023-05-16T03:08:48;30.03;;;21.97;;
5054;SDS011;13829;48.990;8.346;2023-05-16T03:11:16;30.13;;;22.13;;
5054;SDS011;13829;48.990;8.346;2023-05-16T03:13:44;32.27;;;24.97;;
5054;SDS011;13829;48.990;8.346;2023-05-16T03:16:11;34.93;;;24.63;;
5054;SDS011;13829;48.990;8.346;2023-05-16T03:18:39;29.73;;;23.53;;
5054;SDS011;13829;48.990;8.346;2023-05-16T03:21:06;33.17;;;24.17;;
5054;SDS011;13829;48.990;8.346;2023-05-16T03:23:34;28.33;;;23.37;;
5054;SDS011;13829;48.990;8.346;2023-05-16T03:26:01;32.80;;;23.90;;
5054;SDS011;13829;48.990;8.346;2023-05-16T03:28:28;31.77;;;23.00;;
5054;SDS011;13829;48.990;8.346;2023-05-16T03:30:55;31.77;;;23.43;;
5054;SDS011;13829;48.990;8.346;2023-05-16T03:33:22;31.93;;;24.40;;
5054;SDS011;13829;48.990;8.346;2023-05-16T03:35:49;30.93;;;23.77;;
5054;SDS011;13829;48.990;8.346;2023-05-16T03:38:17;28.30;;;20.83;;
5054;SDS011;13829;48.990;8.346;2023-05-16T03:40:45;25.70;;;20.20;;
5054;SDS011;13829;48.990;8.346;2023-05-16T03:43:12;28.97;;;22.33;;
5054;SDS011;13829;48.990;8.346;2023-05-16T03:45:39;29.30;;;22.93;;
5054;SDS011;13829;48.990;8.346;2023-05-16T03:48:07;28.73;;;22.33;;
5054;SDS011;13829;48.990;8.346;2023-05-16T03:50:34;28.43;;;20.47;;
5054;SDS011;13829;48.990;8.346;2023-05-16T03:53:01;25.77;;;19.63;;
5054;SDS011;13829;48.990;8.346;2023-05-16T03:55:28;33.87;;;21.23;;
5054;SDS011;13829;48.990;8.346;2023-05-16T03:57:57;30.97;;;20.60;;
5054;SDS011;13829;48.990;8.346;2023-05-16T04:00:24;26.10;;;19.43;;
5054;SDS011;13829;48.990;8.346;2023-05-16T04:02:51;27.17;;;19.00;;
5054;SDS011;13829;48.990;8.346;2023-05-16T04:05:18;23.90;;;18.27;;
5054;SDS011;13829;48.990;8.346;2023-05-16T04:07:45;27.97;;;20.30;;
5054;SDS011;13829;48.990;8.346;2023-05-16T04:10:12;25.13;;;19.23;;
5054;SDS011;13829;48.990;8.346;2023-05-16T04:12:40;25.30;;;18.87;;
5054;SDS011;13829;48.990;8.346;2023-05-16T04:15:10;23.37;;;18.60;;
5054;SDS011;13829;48.990;8.346;2023-05-16T04:17:36;27.20;;;18.63;;
5054;SDS011;13829;48.990;8.346;2023-05-16T04:20:04;28.20;;;19.47;;
5054;SDS011;13829;48.990;8.346;2023-05-16T04:22:32;27.70;;;19.30;;
5054;SDS011;13829;48.990;8.346;2023-05-16T04:24:59;26.30;;;18.80;;
5054;SDS011;13829;48.990;8.346;2023-05-16T04:27:26;27.80;;;19.43;;
5054;SDS011;13829;48.990;8.346;2023-05-16T04:29:54;26.03;;;18.37;;
5054;SDS011;13829;48.990;8.346;2023-05-16T04:32:22;26.87;;;19.23;;
5054;SDS011;13829;48.990;8.346;2023-05-16T04:34:50;26.57;;;17.63;;
5054;SDS011;13829;48.990;8.346;2023-05-16T04:37:18;26.13;;;19.13;;
5054;SDS011;13829;48.990;8.346;2023-05-16T04:39:45;24.80;;;18.00;;
5054;SDS011;13829;48.990;8.346;2023-05-16T04:42:12;32.37;;;19.93;;
5054;SDS011;13829;48.990;8.346;2023-05-16T04:44:39;26.77;;;17.73;;
5054;SDS011;13829;48.990;8.346;2023-05-16T04:47:06;25.93;;;17.13;;
5054;SDS011;13829;48.990;8.346;2023-05-16T04:49:34;23.90;;;16.73;;
5054;SDS011;13829;48.990;8.346;2023-05-16T04:52:01;23.83;;;17.63;;
5054;SDS011;13829;48.990;8.346;2023-05-16T04:54:28;25.87;;;18.50;;
5054;SDS011;13829;48.990;8.346;2023-05-16T04:56:55;22.37;;;16.63;;
5054;SDS011;13829;48.990;8.346;2023-05-16T04:59:22;24.47;;;17.27;;
5054;SDS011;13829;48.990;8.346;2023-05-16T05:01:49;28.73;;;18.00;;
5054;SDS011;13829;48.990;8.346;2023-05-16T05:04:16;25.17;;;17.70;;
5054;SDS011;13829;48.990;8.346;2023-05-16T05:06:44;22.80;;;17.23;;
5054;SDS011;13829;48.990;8.346;2023-05-16T05:09:11;26.23;;;18.00;;
5054;SDS011;13829;48.990;8.346;2023-05-16T05:11:38;29.27;;;17.80;;
5054;SDS011;13829;48.990;8.346;2023-05-16T05:14:05;25.83;;;18.07;;
5054;SDS011;13829;48.990;8.346;2023-05-16T05:16:32;26.03;;;18.27;;
5054;SDS011;13829;48.990;8.346;2023-05-16T05:18:59;28.87;;;17.10;;
5054;SDS011;13829;48.990;8.346;2023-05-16T05:21:26;24.70;;;17.43;;
5054;SDS011;13829;48.990;8.346;2023-05-16T05:23:56;24.50;;;17.07;;
5054;SDS011;13829;48.990;8.346;2023-05-16T05:26:23;24.33;;;17.13;;
5054;SDS011;13829;48.990;8.346;2023-05-16T05:28:50;21.97;;;15.47;;
5054;SDS011;13829;48.990;8.346;2023-05-16T05:31:17;26.80;;;16.93;;
5054;SDS011;13829;48.990;8.346;2023-05-16T05:33:44;25.13;;;16.90;;
5054;SDS011;13829;48.990;8.346;2023-05-16T05:36:11;23.87;;;16.20;;
5054;SDS011;13829;48.990;8.346;2023-05-16T05:38:37;25.17;;;16.30;;
5054;SDS011;13829;48.990;8.346;2023-05-16T05:41:06;21.63;;;16.17;;
5054;SDS011;13829;48.990;8.346;2023-05-16T05:43:33;26.63;;;17.27;;
5054;SDS011;13829;48.990;8.346;2023-05-16T05:45:59;23.43;;;15.07;;
5054;SDS011;13829;48.990;8.346;2023-05-16T05:48:27;22.23;;;15.43;;
5054;SDS011;13829;48.990;8.346;2023-05-16T05:50:54;23.50;;;14.73;;
5054;SDS011;13829;48.990;8.346;2023-05-16T05:53:21;26.17;;;14.93;;
5054;SDS011;13829;48.990;8.346;2023-05-16T05:55:48;23.67;;;14.97;;
5054;SDS011;13829;48.990;8.346;2023-05-16T05:58:16;20.93;;;14.23;;
5054;SDS011;13829;48.990;8.346;2023-05-16T06:00:43;20.50;;;14.27;;
5054;SDS011;13829;48.990;8.346;2023-05-16T06:03:11;21.40;;;13.97;;
5054;SDS011;13829;48.990;8.346;2023-05-16T06:05:38;19.70;;;12.93;;
5054;SDS011;13829;48.990;8.346;2023-05-16T06:08:05;20.77;;;13.27;;
5054;SDS011;13829;48.990;8.346;2023-05-16T06:10:32;19.20;;;12.20;;
5054;SDS011;13829;48.990;8.346;2023-05-16T06:12:59;19.10;;;13.37;;
5054;SDS011;13829;48.990;8.346;2023-05-16T06:15:28;19.77;;;12.10;;
5054;SDS011;13829;48.990;8.346;2023-05-16T06:17:54;15.10;;;10.60;;
5054;SDS011;13829;48.990;8.346;2023-05-16T06:20:22;15.20;;;10.33;;
5054;SDS011;13829;48.990;8.346;2023-05-16T06:22:49;15.60;;;10.33;;
5054;SDS011;13829;48.990;8.346;2023-05-16T06:25:16;11.93;;;9.07;;
5054;SDS011;13829;48.990;8.346;2023-05-16T06:27:43;11.53;;;8.00;;
5054;SDS011;13829;48.990;8.346;2023-05-16T06:30:10;9.70;;;7.73;;
5054;SDS011;13829;48.990;8.346;2023-05-16T06:32:39;11.87;;;7.60;;
5054;SDS011;13829;48.990;8.346;2023-05-16T06:35:07;10.53;;;7.43;;
5054;SDS011;13829;48.990;8.346;2023-05-16T06:37:34;12.70;;;7.53;;
5054;SDS011;13829;48.990;8.346;2023-05-16T06:40:02;11.53;;;7.50;;
5054;SDS011;13829;48.990;8.346;2023-05-16T06:42:29;9.07;;;6.10;;
5054;SDS011;13829;48.990;8.346;2023-05-16T06:44:56;9.07;;;6.30;;
5054;SDS011;13829;48.990;8.346;2023-05-16T06:47:23;8.47;;;5.67;;
5054;SDS011;13829;48.990;8.346;2023-05-16T06:49:51;7.87;;;5.37;;
5054;SDS011;13829;48.990;8.346;2023-05-16T06:52:18;5.93;;;4.37;;
5054;SDS011;13829;48.990;8.346;2023-05-16T06:54:46;6.67;;;4.57;;
5054;SDS011;13829;48.990;8.346;2023-05-16T06:57:13;5.17;;;4.20;;
5054;SDS011;13829;48.990;8.346;2023-05-16T06:59:40;5.60;;;4.40;;
5054;SDS011;13829;48.990;8.346;2023-05-16T07:02:08;6.20;;;4.30;;
5054;SDS011;13829;48.990;8.346;2023-05-16T07:04:35;6.87;;;4.27;;
5054;SDS011;13829;48.990;8.346;2023-05-16T07:07:03;8.50;;;3.70;;
5054;SDS011;13829;48.990;8.346;2023-05-16T07:09:31;3.63;;;3.03;;
5054;SDS011;13829;48.990;8.346;2023-05-16T07:11:58;2.93;;;2.63;;
5054;SDS011;13829;48.990;8.346;2023-05-16T07:14:25;4.43;;;2.17;;
5054;SDS011;13829;48.990;8.346;2023-05-16T07:16:53;3.20;;;2.43;;
5054;SDS011;13829;48.990;8.346;2023-05-16T07:19:19;2.73;;;1.83;;
5054;SDS011;13829;48.990;8.346;2023-05-16T07:21:46;4.40;;;2.07;;
5054;SDS011;13829;48.990;8.346;2023-05-16T07:24:15;4.60;;;2.40;;
5054;SDS011;13829;48.990;8.346;2023-05-16T07:26:42;2.87;;;1.90;;
5054;SDS011;13829;48.990;8.346;2023-05-16T07:29:09;2.10;;;1.70;;
5054;SDS011;13829;48.990;8.346;2023-05-16T07:31:36;2.07;;;1.77;;
5054;SDS011;13829;48.990;8.346;2023-05-16T07:34:03;2.50;;;2.03;;
5054;SDS011;13829;48.990;8.346;2023-05-16T07:36:30;2.37;;;1.80;;
5054;SDS011;13829;48.990;8.346;2023-05-16T07:38:57;2.00;;;1.50;;
5054;SDS011;13829;48.990;8.346;2023-05-16T07:41:25;2.40;;;1.57;;
5054;SDS011;13829;48.990;8.346;2023-05-16T07:43:52;1.47;;;1.37;;
5054;SDS011;13829;48.990;8.346;2023-05-16T07:46:19;2.77;;;1.40;;
5054;SDS011;13829;48.990;8.346;2023-05-16T07:48:46;2.60;;;1.73;;
5054;SDS011;13829;48.990;8.346;2023-05-16T07:51:13;1.67;;;1.50;;
5054;SDS011;13829;48.990;8.346;2023-05-16T07:53:40;2.13;;;1.40;;
5054;SDS011;13829;48.990;8.346;2023-05-16T07:56:07;1.73;;;1.50;;
5054;SDS011;13829;48.990;8.346;2023-05-16T07:58:36;1.73;;;1.37;;
5054;SDS011;13829;48.990;8.346;2023-05-16T08:01:03;1.97;;;1.40;;
5054;SDS011;13829;48.990;8.346;2023-05-16T08:03:30;2.93;;;1.97;;
5054;SDS011;13829;48.990;8.346;2023-05-16T08:05:57;1.77;;;1.40;;
5054;SDS011;13829;48.990;8.346;2023-05-16T08:08:24;2.00;;;1.60;;
5054;SDS011;13829;48.990;8.346;2023-05-16T08:10:51;2.03;;;1.70;;
5054;SDS011;13829;48.990;8.346;2023-05-16T08:13:18;2.27;;;1.80;;
5054;SDS011;13829;48.990;8.346;2023-05-16T08:15:46;1.77;;;1.63;;
5054;SDS011;13829;48.990;8.346;2023-05-16T08:18:13;1.43;;;1.13;;
5054;SDS011;13829;48.990;8.346;2023-05-16T08:20:41;2.67;;;1.47;;
5054;SDS011;13829;48.990;8.346;2023-05-16T08:23:08;2.37;;;1.53;;
5054;SDS011;13829;48.990;8.346;2023-05-16T08:25:35;2.77;;;1.53;;
5054;SDS011;13829;48.990;8.346;2023-05-16T08:28:03;1.30;;;1.10;;
5054;SDS011;13829;48.990;8.346;2023-05-16T08:30:29;1.80;;;1.40;;
5054;SDS011;13829;48.990;8.346;2023-05-16T08:32:58;1.90;;;1.50;;
5054;SDS011;13829;48.990;8.346;2023-05-16T08:35:28;2.60;;;1.67;;
5054;SDS011;13829;48.990;8.346;2023-05-16T08:37:55;2.47;;;1.60;;
5054;SDS011;13829;48.990;8.346;2023-05-16T08:40:23;1.43;;;1.20;;
5054;SDS011;13829;48.990;8.346;2023-05-16T08:42:52;1.47;;;1.30;;
5054;SDS011;13829;48.990;8.346;2023-05-16T08:45:19;1.50;;;1.30;;
5054;SDS011;13829;48.990;8.346;2023-05-16T08:47:47;1.37;;;1.27;;
5054;SDS011;13829;48.990;8.346;2023-05-16T08:50:17;2.67;;;1.90;;
5054;SDS011;13829;48.990;8.346;2023-05-16T08:52:44;1.40;;;1.20;;
5054;SDS011;13829;48.990;8.346;2023-05-16T08:55:17;1.70;;;1.23;;
5054;SDS011;13829;48.990;8.346;2023-05-16T08:57:47;3.73;;;1.30;;
5054;SDS011;13829;48.990;8.346;2023-05-16T09:00:16;2.93;;;1.43;;
5054;SDS011;13829;48.990;8.346;2023-05-16T09:02:44;3.33;;;1.57;;
5054;SDS011;13829;48.990;8.346;2023-05-16T09:05:12;1.70;;;1.50;;
5054;SDS011;13829;48.990;8.346;2023-05-16T09:07:42;1.93;;;1.47;;
5054;SDS011;13829;48.990;8.346;2023-05-16T09:10:10;3.10;;;1.63;;
5054;SDS011;13829;48.990;8.346;2023-05-16T09:12:38;2.07;;;1.80;;
5054;SDS011;13829;48.990;8.346;2023-05-16T09:15:07;2.47;;;1.50;;
5054;SDS011;13829;48.990;8.346;2023-05-16T09:17:36;2.30;;;1.53;;
5054;SDS011;13829;48.990;8.346;2023-05-16T09:20:08;2.83;;;1.90;;
5054;SDS011;13829;48.990;8.346;2023-05-16T09:22:37;3.23;;;1.73;;
5054;SDS011;13829;48.990;8.346;2023-05-16T09:25:07;3.00;;;1.60;;
5054;SDS011;13829;48.990;8.346;2023-05-16T09:27:34;1.73;;;1.40;;
5054;SDS011;13829;48.990;8.346;2023-05-16T09:30:02;4.63;;;1.87;;
5054;SDS011;13829;48.990;8.346;2023-05-16T09:32:30;6.33;;;1.60;;
5054;SDS011;13829;48.990;8.346;2023-05-16T09:34:58;2.53;;;1.37;;
5054;SDS011;13829;48.990;8.346;2023-05-16T09:37:25;2.27;;;1.50;;
5054;SDS011;13829;48.990;8.346;2023-05-16T09:39:52;4.23;;;1.73;;
5054;SDS011;13829;48.990;8.346;2023-05-16T09:42:22;2.47;;;1.30;;
5054;SDS011;13829;48.990;8.346;2023-05-16T09:44:51;3.60;;;1.40;;
5054;SDS011;13829;48.990;8.346;2023-05-16T09:47:21;1.53;;;1.43;;
5054;SDS011;13829;48.990;8.346;2023-05-16T09:49:51;4.03;;;1.30;;
5054;SDS011;13829;48.990;8.346;2023-05-16T09:52:18;1.40;;;1.30;;
5054;SDS011;13829;48.990;8.346;2023-05-16T09:54:45;2.20;;;1.50;;
5054;SDS011;13829;48.990;8.346;2023-05-16T09:57:16;2.13;;;1.40;;
5054;SDS011;13829;48.990;8.346;2023-05-16T09:59:46;1.13;;;1.03;;
5054;SDS011;13829;48.990;8.346;2023-05-16T10:02:13;2.80;;;1.20;;
5054;SDS011;13829;48.990;8.346;2023-05-16T10:04:41;2.00;;;1.30;;
5054;SDS011;13829;48.990;8.346;2023-05-16T10:07:08;1.37;;;0.90;;
5054;SDS011;13829;48.990;8.346;2023-05-16T10:09:37;1.30;;;1.10;;
5054;SDS011;13829;48.990;8.346;2023-05-16T10:12:07;3.00;;;1.10;;
5054;SDS011;13829;48.990;8.346;2023-05-16T10:14:38;1.33;;;1.10;;
5054;SDS011;13829;48.990;8.346;2023-05-16T10:17:11;1.27;;;0.90;;
5054;SDS011;13829;48.990;8.346;2023-05-16T10:19:41;2.40;;;0.93;;
5054;SDS011;13829;48.990;8.346;2023-05-16T10:22:09;1.13;;;1.00;;
5054;SDS011;13829;48.990;8.346;2023-05-16T10:24:46;1.53;;;1.00;;
5054;SDS011;13829;48.990;8.346;2023-05-16T10:27:20;3.27;;;1.10;;
5054;SDS011;13829;48.990;8.346;2023-05-16T10:29:49;1.10;;;1.00;;
5054;SDS011;13829;48.990;8.346;2023-05-16T10:32:18;2.23;;;0.87;;
5054;SDS011;13829;48.990;8.346;2023-05-16T10:34:48;1.23;;;0.97;;
5054;SDS011;13829;48.990;8.346;2023-05-16T10:37:16;0.90;;;0.87;;
5054;SDS011;13829;48.990;8.346;2023-05-16T10:39:43;1.13;;;1.03;;
5054;SDS011;13829;48.990;8.346;2023-05-16T10:42:11;2.87;;;1.37;;
5054;SDS011;13829;48.990;8.346;2023-05-16T10:44:42;1.70;;;0.70;;
5054;SDS011;13829;48.990;8.346;2023-05-16T10:47:09;1.57;;;0.90;;
5054;SDS011;13829;48.990;8.346;2023-05-16T10:49:38;5.27;;;1.13;;
5054;SDS011;13829;48.990;8.346;2023-05-16T10:52:07;2.87;;;1.30;;
5054;SDS011;13829;48.990;8.346;2023-05-16T10:54:36;3.47;;;0.97;;
5054;SDS011;13829;48.990;8.346;2023-05-16T10:57:05;1.13;;;0.80;;
5054;SDS011;13829;48.990;8.346;2023-05-16T10:59:39;2.47;;;0.70;;
5054;SDS011;13829;48.990;8.346;2023-05-16T11:02:21;2.67;;;0.70;;
5054;SDS011;13829;48.990;8.346;2023-05-16T11:04:53;4.50;;;0.90;;
5054;SDS011;13829;48.990;8.346;2023-05-16T11:07:23;1.83;;;0.73;;
5054;SDS011;13829;48.990;8.346;2023-05-16T11:10:02;3.03;;;0.90;;
5054;SDS011;13829;48.990;8.346;2023-05-16T11:12:37;1.40;;;0.60;;
5054;SDS011;13829;48.990;8.346;2023-05-16T11:15:17;1.10;;;0.77;;
5054;SDS011;13829;48.990;8.346;2023-05-16T11:17:49;1.23;;;0.60;;
5054;SDS011;13829;48.990;8.346;2023-05-16T11:20:30;5.10;;;0.87;;
5054;SDS011;13829;48.990;8.346;2023-05-16T11:25:51;1.93;;;0.80;;
5054;SDS011;13829;48.990;8.346;2023-05-16T11:28:21;1.80;;;0.80;;
5054;SDS011;13829;48.990;8.346;2023-05-16T11:30:51;6.40;;;1.73;;
5054;SDS011;13829;48.990;8.346;2023-05-16T11:33:21;1.63;;;0.80;;
5054;SDS011;13829;48.990;8.346;2023-05-16T11:36:00;2.90;;;1.00;;
5054;SDS011;13829;48.990;8.346;2023-05-16T11:38:32;3.60;;;1.17;;
5054;SDS011;13829;48.990;8.346;2023-05-16T11:41:02;1.90;;;1.30;;
5054;SDS011;13829;48.990;8.346;2023-05-16T11:43:35;1.23;;;0.90;;
5054;SDS011;13829;48.990;8.346;2023-05-16T11:46:05;3.67;;;1.10;;
5054;SDS011;13829;48.990;8.346;2023-05-16T11:48:32;2.63;;;1.20;;
5054;SDS011;13829;48.990;8.346;2023-05-16T11:51:02;2.73;;;1.33;;
5054;SDS011;13829;48.990;8.346;2023-05-16T11:53:29;2.03;;;1.00;;
5054;SDS011;13829;48.990;8.346;2023-05-16T11:55:56;1.67;;;0.93;;
5054;SDS011;13829;48.990;8.346;2023-05-16T11:58:26;3.60;;;1.20;;
5054;SDS011;13829;48.990;8.346;2023-05-16T12:00:53;1.80;;;0.90;;
5054;SDS011;13829;48.990;8.346;2023-05-16T12:03:20;1.67;;;0.90;;
5054;SDS011;13829;48.990;8.346;2023-05-16T12:05:50;2.43;;;1.00;;
5054;SDS011;13829;48.990;8.346;2023-05-16T12:08:20;1.13;;;0.80;;
5054;SDS011;13829;48.990;8.346;2023-05-16T12:10:48;3.10;;;0.97;;
5054;SDS011;13829;48.990;8.346;2023-05-16T12:13:16;3.20;;;1.20;;
5054;SDS011;13829;48.990;8.346;2023-05-16T12:15:45;2.50;;;0.90;;
5054;SDS011;13829;48.990;8.346;2023-05-16T12:18:13;2.83;;;1.00;;
5054;SDS011;13829;48.990;8.346;2023-05-16T12:20:42;2.20;;;1.17;;
5054;SDS011;13829;48.990;8.346;2023-05-16T12:23:10;1.60;;;1.20;;
5054;SDS011;13829;48.990;8.346;2023-05-16T12:25:43;2.37;;;1.20;;
5054;SDS011;13829;48.990;8.346;2023-05-16T12:28:13;2.77;;;1.40;;
5054;SDS011;13829;48.990;8.346;2023-05-16T12:30:41;1.53;;;1.20;;
5054;SDS011;13829;48.990;8.346;2023-05-16T12:33:12;4.80;;;1.53;;
5054;SDS011;13829;48.990;8.346;2023-05-16T12:35:41;3.67;;;1.53;;
5054;SDS011;13829;48.990;8.346;2023-05-16T12:38:11;3.63;;;1.73;;
5054;SDS011;13829;48.990;8.346;2023-05-16T12:40:42;2.73;;;1.73;;
5054;SDS011;13829;48.990;8.346;2023-05-16T12:43:13;3.63;;;1.70;;
5054;SDS011;13829;48.990;8.346;2023-05-16T12:45:42;5.47;;;1.70;;
5054;SDS011;13829;48.990;8.346;2023-05-16T12:48:16;3.77;;;1.80;;
5054;SDS011;13829;48.990;8.346;2023-05-16T12:50:44;3.30;;;1.90;;
5054;SDS011;13829;48.990;8.346;2023-05-16T12:53:11;4.73;;;2.03;;
5054;SDS011;13829;48.990;8.346;2023-05-16T12:55:39;5.00;;;2.07;;
5054;SDS011;13829;48.990;8.346;2023-05-16T12:58:09;4.90;;;2.10;;
5054;SDS011;13829;48.990;8.346;2023-05-16T13:00:37;4.67;;;2.03;;
5054;SDS011;13829;48.990;8.346;2023-05-16T13:03:04;5.57;;;2.70;;
5054;SDS011;13829;48.990;8.346;2023-05-16T13:05:32;6.67;;;2.00;;
5054;SDS011;13829;48.990;8.346;2023-05-16T13:07:59;3.10;;;1.67;;
5054;SDS011;13829;48.990;8.346;2023-05-16T13:10:27;6.17;;;2.50;;
5054;SDS011;13829;48.990;8.346;2023-05-16T13:12:56;3.23;;;2.00;;
5054;SDS011;13829;48.990;8.346;2023-05-16T13:15:23;6.33;;;2.10;;
5054;SDS011;13829;48.990;8.346;2023-05-16T13:17:51;7.13;;;2.50;;
5054;SDS011;13829;48.990;8.346;2023-05-16T13:20:18;3.57;;;2.00;;
5054;SDS011;13829;48.990;8.346;2023-05-16T13:22:45;7.13;;;2.17;;
5054;SDS011;13829;48.990;8.346;2023-05-16T13:25:12;3.93;;;1.70;;
5054;SDS011;13829;48.990;8.346;2023-05-16T13:27:39;3.50;;;1.73;;
5054;SDS011;13829;48.990;8.346;2023-05-16T13:30:07;7.63;;;2.33;;
5054;SDS011;13829;48.990;8.346;2023-05-16T13:32:35;8.60;;;2.87;;
5054;SDS011;13829;48.990;8.346;2023-05-16T13:35:02;6.43;;;2.33;;
5054;SDS011;13829;48.990;8.346;2023-05-16T13:37:30;5.57;;;2.77;;
5054;SDS011;13829;48.990;8.346;2023-05-16T13:39:57;8.03;;;3.30;;
5054;SDS011;13829;48.990;8.346;2023-05-16T13:42:24;9.07;;;3.20;;
5054;SDS011;13829;48.990;8.346;2023-05-16T13:44:51;6.33;;;2.70;;
5054;SDS011;13829;48.990;8.346;2023-05-16T13:47:19;8.63;;;2.67;;
5054;SDS011;13829;48.990;8.346;2023-05-16T13:49:46;5.43;;;2.40;;
5054;SDS011;13829;48.990;8.346;2023-05-16T13:52:13;7.00;;;2.20;;
5054;SDS011;13829;48.990;8.346;2023-05-16T13:54:40;7.30;;;2.30;;
5054;SDS011;13829;48.990;8.346;2023-05-16T13:57:07;7.17;;;2.37;;
5054;SDS011;13829;48.990;8.346;2023-05-16T13:59:34;4.13;;;1.97;;
5054;SDS011;13829;48.990;8.346;2023-05-16T14:02:01;8.37;;;2.70;;
5054;SDS011;13829;48.990;8.346;2023-05-16T14:04:29;9.20;;;2.20;;
5054;SDS011;13829;48.990;8.346;2023-05-16T14:06:56;6.90;;;2.40;;
5054;SDS011;13829;48.990;8.346;2023-05-16T14:09:23;4.17;;;1.97;;
5054;SDS011;13829;48.990;8.346;2023-05-16T14:11:50;3.43;;;2.07;;
5054;SDS011;13829;48.990;8.346;2023-05-16T14:14:17;6.80;;;2.40;;
5054;SDS011;13829;48.990;8.346;2023-05-16T14:16:45;5.20;;;2.37;;
5054;SDS011;13829;48.990;8.346;2023-05-16T14:19:12;7.93;;;2.27;;
5054;SDS011;13829;48.990;8.346;2023-05-16T14:21:40;6.70;;;2.30;;
5054;SDS011;13829;48.990;8.346;2023-05-16T14:24:07;7.97;;;2.20;;
5054;SDS011;13829;48.990;8.346;2023-05-16T14:26:34;6.80;;;1.83;;
5054;SDS011;13829;48.990;8.346;2023-05-16T14:29:01;9.63;;;2.30;;
5054;SDS011;13829;48.990;8.346;2023-05-16T14:31:28;5.03;;;1.90;;
5054;SDS011;13829;48.990;8.346;2023-05-16T14:33:55;6.37;;;2.07;;
5054;SDS011;13829;48.990;8.346;2023-05-16T14:36:22;8.10;;;2.17;;
5054;SDS011;13829;48.990;8.346;2023-05-16T14:38:51;5.70;;;1.70;;
5054;SDS011;13829;48.990;8.346;2023-05-16T14:41:18;4.17;;;1.90;;
5054;SDS011;13829;48.990;8.346;2023-05-16T14:43:45;5.30;;;2.00;;
5054;SDS011;13829;48.990;8.346;2023-05-16T14:46:12;5.57;;;1.67;;
5054;SDS011;13829;48.990;8.346;2023-05-16T14:48:39;4.50;;;2.23;;
5054;SDS011;13829;48.990;8.346;2023-05-16T14:51:06;3.70;;;2.23;;
5054;SDS011;13829;48.990;8.346;2023-05-16T14:53:33;4.20;;;2.10;;
5054;SDS011;13829;48.990;8.346;2023-05-16T14:56:01;6.40;;;1.87;;
5054;SDS011;13829;48.990;8.346;2023-05-16T14:58:28;5.97;;;1.80;;
5054;SDS011;13829;48.990;8.346;2023-05-16T15:00:56;6.90;;;1.60;;
5054;SDS011;13829;48.990;8.346;2023-05-16T15:03:23;5.03;;;1.77;;
5054;SDS011;13829;48.990;8.346;2023-05-16T15:05:50;6.57;;;2.70;;